sensor_id;sensor_type;location;lat;lon;timestamp;P1;durP1;ratioP1;P2;durP2;ratioP2
66972;SDS011;53902;51.466;-2.586;2023-04-07T00:01:08;6.63;;;2.42;;
66972;SDS011;53902;51.466;-2.586;2023-04-07T00:03:33;4.53;;;1.98;;
66972;SDS011;53902;51.466;-2.586;2023-04-07T00:05:59;4.05;;;2.13;;
66972;SDS011;53902;51.466;-2.586;2023-04-07T00:08:25;6.05;;;2.00;;
66972;SDS011;53902;51.466;-2.586;2023-04-07T00:10:51;5.07;;;1.90;;
66972;SDS011;53902;51.466;-2.586;2023-04-07T00:13:16;7.25;;;2.03;;
66972;SDS011;53902;51.466;-2.586;2023-04-07T00:15:42;7.70;;;2.47;;
66972;SDS011;53902;51.466;-2.586;2023-04-07T00:18:07;7.25;;;1.80;;
66972;SDS011;53902;51.466;-2.586;2023-04-07T00:20:32;4.22;;;2.05;;
66972;SDS011;53902;51.466;-2.586;2023-04-07T00:22:58;6.70;;;2.42;;
66972;SDS011;53902;51.466;-2.586;2023-04-07T00:25:23;4.32;;;1.75;;
66972;SDS011;53902;51.466;-2.586;2023-04-07T00:27:49;6.93;;;2.03;;
66972;SDS011;53902;51.466;-2.586;2023-04-07T00:30:14;5.00;;;1.92;;
66972;SDS011;53902;51.466;-2.586;2023-04-07T00:32:40;9.98;;;2.00;;
66972;SDS011;53902;51.466;-2.586;2023-04-07T00:35:05;7.22;;;2.00;;
66972;SDS011;53902;51.466;-2.586;2023-04-07T00:37:31;7.65;;;2.30;;
66972;SDS011;53902;51.466;-2.586;2023-04-07T00:39:57;9.27;;;2.47;;
66972;SDS011;53902;51.466;-2.586;2023-04-07T00:42:23;6.70;;;1.90;;
66972;SDS011;53902;51.466;-2.586;2023-04-07T00:44:48;5.65;;;1.70;;
66972;SDS011;53902;51.466;-2.586;2023-04-07T00:47:14;4.57;;;1.75;;
66972;SDS011;53902;51.466;-2.586;2023-04-07T00:49:40;6.88;;;1.40;;
66972;SDS011;53902;51.466;-2.586;2023-04-07T00:52:06;4.03;;;1.77;;
66972;SDS011;53902;51.466;-2.586;2023-04-07T00:54:32;7.03;;;1.85;;
66972;SDS011;53902;51.466;-2.586;2023-04-07T00:56:57;7.32;;;2.05;;
66972;SDS011;53902;51.466;-2.586;2023-04-07T00:59:23;3.80;;;1.77;;
66972;SDS011;53902;51.466;-2.586;2023-04-07T01:04:55;6.60;;;2.53;;
66972;SDS011;53902;51.466;-2.586;2023-04-07T01:07:27;5.13;;;2.22;;
66972;SDS011;53902;51.466;-2.586;2023-04-07T01:10:16;5.28;;;2.53;;
66972;SDS011;53902;51.466;-2.586;2023-04-07T01:13:22;4.13;;;2.00;;
66972;SDS011;53902;51.466;-2.586;2023-04-07T01:15:52;8.85;;;2.78;;
66972;SDS011;53902;51.466;-2.586;2023-04-07T01:18:21;12.35;;;3.92;;
66972;SDS011;53902;51.466;-2.586;2023-04-07T01:20:51;10.32;;;3.35;;
66972;SDS011;53902;51.466;-2.586;2023-04-07T01:23:22;12.07;;;2.80;;
66972;SDS011;53902;51.466;-2.586;2023-04-07T01:31:11;4.65;;;2.20;;
66972;SDS011;53902;51.466;-2.586;2023-04-07T01:33:37;4.50;;;2.35;;
66972;SDS011;53902;51.466;-2.586;2023-04-07T01:36:04;4.80;;;2.35;;
66972;SDS011;53902;51.466;-2.586;2023-04-07T01:38:31;5.70;;;2.35;;
66972;SDS011;53902;51.466;-2.586;2023-04-07T01:40:57;6.77;;;2.23;;
66972;SDS011;53902;51.466;-2.586;2023-04-07T01:43:23;5.85;;;2.33;;
66972;SDS011;53902;51.466;-2.586;2023-04-07T01:45:50;6.13;;;2.85;;
66972;SDS011;53902;51.466;-2.586;2023-04-07T01:48:31;5.30;;;2.45;;
66972;SDS011;53902;51.466;-2.586;2023-04-07T01:50:57;8.25;;;2.05;;
66972;SDS011;53902;51.466;-2.586;2023-04-07T01:53:23;3.95;;;2.10;;
66972;SDS011;53902;51.466;-2.586;2023-04-07T01:55:50;2.83;;;1.80;;
66972;SDS011;53902;51.466;-2.586;2023-04-07T01:58:16;10.98;;;2.53;;
66972;SDS011;53902;51.466;-2.586;2023-04-07T02:00:41;6.20;;;2.35;;
66972;SDS011;53902;51.466;-2.586;2023-04-07T02:03:12;7.90;;;2.45;;
66972;SDS011;53902;51.466;-2.586;2023-04-07T02:05:44;6.65;;;2.30;;
66972;SDS011;53902;51.466;-2.586;2023-04-07T02:08:11;4.25;;;2.30;;
66972;SDS011;53902;51.466;-2.586;2023-04-07T02:10:42;5.63;;;2.22;;
66972;SDS011;53902;51.466;-2.586;2023-04-07T02:13:12;5.38;;;2.35;;
66972;SDS011;53902;51.466;-2.586;2023-04-07T02:15:41;6.05;;;2.25;;
66972;SDS011;53902;51.466;-2.586;2023-04-07T02:18:09;2.90;;;1.60;;
66972;SDS011;53902;51.466;-2.586;2023-04-07T02:20:36;8.57;;;2.00;;
66972;SDS011;53902;51.466;-2.586;2023-04-07T02:23:02;3.35;;;1.63;;
66972;SDS011;53902;51.466;-2.586;2023-04-07T02:25:29;5.28;;;1.60;;
66972;SDS011;53902;51.466;-2.586;2023-04-07T02:27:56;6.25;;;1.67;;
66972;SDS011;53902;51.466;-2.586;2023-04-07T02:30:22;6.45;;;1.30;;
66972;SDS011;53902;51.466;-2.586;2023-04-07T02:32:48;3.97;;;1.42;;
66972;SDS011;53902;51.466;-2.586;2023-04-07T02:35:13;3.13;;;1.83;;
66972;SDS011;53902;51.466;-2.586;2023-04-07T02:37:40;10.00;;;2.13;;
66972;SDS011;53902;51.466;-2.586;2023-04-07T02:40:06;3.33;;;1.80;;
66972;SDS011;53902;51.466;-2.586;2023-04-07T02:42:32;4.78;;;1.40;;
66972;SDS011;53902;51.466;-2.586;2023-04-07T02:44:58;2.22;;;1.27;;
66972;SDS011;53902;51.466;-2.586;2023-04-07T02:47:24;4.13;;;1.30;;
66972;SDS011;53902;51.466;-2.586;2023-04-07T02:49:49;2.10;;;1.33;;
66972;SDS011;53902;51.466;-2.586;2023-04-07T02:52:15;8.23;;;1.50;;
66972;SDS011;53902;51.466;-2.586;2023-04-07T02:54:41;3.08;;;1.42;;
66972;SDS011;53902;51.466;-2.586;2023-04-07T02:57:06;2.90;;;1.60;;
66972;SDS011;53902;51.466;-2.586;2023-04-07T02:59:32;3.70;;;1.30;;
66972;SDS011;53902;51.466;-2.586;2023-04-07T03:01:57;6.95;;;1.52;;
66972;SDS011;53902;51.466;-2.586;2023-04-07T03:04:23;3.05;;;1.30;;
66972;SDS011;53902;51.466;-2.586;2023-04-07T03:06:48;4.53;;;1.40;;
66972;SDS011;53902;51.466;-2.586;2023-04-07T03:09:13;2.80;;;1.30;;
66972;SDS011;53902;51.466;-2.586;2023-04-07T03:11:39;4.38;;;1.30;;
66972;SDS011;53902;51.466;-2.586;2023-04-07T03:14:05;3.85;;;1.65;;
66972;SDS011;53902;51.466;-2.586;2023-04-07T03:16:31;4.95;;;1.63;;
66972;SDS011;53902;51.466;-2.586;2023-04-07T03:18:56;2.22;;;1.17;;
66972;SDS011;53902;51.466;-2.586;2023-04-07T03:21:22;6.72;;;1.45;;
66972;SDS011;53902;51.466;-2.586;2023-04-07T03:23:47;3.90;;;1.42;;
66972;SDS011;53902;51.466;-2.586;2023-04-07T03:26:13;3.45;;;1.17;;
66972;SDS011;53902;51.466;-2.586;2023-04-07T03:28:38;7.35;;;1.83;;
66972;SDS011;53902;51.466;-2.586;2023-04-07T03:31:04;3.78;;;1.50;;
66972;SDS011;53902;51.466;-2.586;2023-04-07T03:33:29;4.25;;;1.30;;
66972;SDS011;53902;51.466;-2.586;2023-04-07T03:35:55;4.30;;;1.42;;
66972;SDS011;53902;51.466;-2.586;2023-04-07T03:38:20;3.13;;;1.23;;
66972;SDS011;53902;51.466;-2.586;2023-04-07T03:40:46;5.40;;;1.55;;
66972;SDS011;53902;51.466;-2.586;2023-04-07T03:43:11;6.57;;;1.35;;
66972;SDS011;53902;51.466;-2.586;2023-04-07T03:45:39;1.73;;;1.10;;
66972;SDS011;53902;51.466;-2.586;2023-04-07T03:48:05;3.53;;;1.50;;
66972;SDS011;53902;51.466;-2.586;2023-04-07T03:50:34;3.33;;;1.40;;
66972;SDS011;53902;51.466;-2.586;2023-04-07T03:53:00;2.63;;;1.40;;
66972;SDS011;53902;51.466;-2.586;2023-04-07T03:55:26;3.22;;;1.27;;
66972;SDS011;53902;51.466;-2.586;2023-04-07T03:57:51;4.32;;;1.27;;
66972;SDS011;53902;51.466;-2.586;2023-04-07T04:00:17;2.88;;;1.38;;
66972;SDS011;53902;51.466;-2.586;2023-04-07T04:02:42;4.63;;;1.42;;
66972;SDS011;53902;51.466;-2.586;2023-04-07T04:05:08;6.45;;;1.70;;
66972;SDS011;53902;51.466;-2.586;2023-04-07T04:07:33;4.93;;;1.52;;
66972;SDS011;53902;51.466;-2.586;2023-04-07T04:10:00;3.42;;;1.70;;
66972;SDS011;53902;51.466;-2.586;2023-04-07T04:12:30;5.50;;;1.83;;
66972;SDS011;53902;51.466;-2.586;2023-04-07T04:14:59;5.57;;;2.08;;
66972;SDS011;53902;51.466;-2.586;2023-04-07T04:17:24;5.28;;;2.28;;
66972;SDS011;53902;51.466;-2.586;2023-04-07T04:19:50;13.07;;;2.40;;
66972;SDS011;53902;51.466;-2.586;2023-04-07T04:22:16;7.22;;;2.00;;
66972;SDS011;53902;51.466;-2.586;2023-04-07T04:24:41;8.38;;;2.20;;
66972;SDS011;53902;51.466;-2.586;2023-04-07T04:27:07;3.42;;;1.80;;
66972;SDS011;53902;51.466;-2.586;2023-04-07T04:29:33;4.72;;;1.92;;
66972;SDS011;53902;51.466;-2.586;2023-04-07T04:31:58;4.95;;;1.90;;
66972;SDS011;53902;51.466;-2.586;2023-04-07T04:34:24;3.97;;;2.10;;
66972;SDS011;53902;51.466;-2.586;2023-04-07T04:36:49;3.45;;;1.55;;
66972;SDS011;53902;51.466;-2.586;2023-04-07T04:39:14;5.85;;;2.25;;
66972;SDS011;53902;51.466;-2.586;2023-04-07T04:41:40;2.70;;;1.85;;
66972;SDS011;53902;51.466;-2.586;2023-04-07T04:44:06;4.93;;;2.20;;
66972;SDS011;53902;51.466;-2.586;2023-04-07T04:46:31;4.47;;;1.63;;
66972;SDS011;53902;51.466;-2.586;2023-04-07T04:48:57;3.88;;;1.70;;
66972;SDS011;53902;51.466;-2.586;2023-04-07T04:51:22;4.43;;;1.70;;
66972;SDS011;53902;51.466;-2.586;2023-04-07T04:53:48;6.78;;;1.95;;
66972;SDS011;53902;51.466;-2.586;2023-04-07T04:56:13;5.72;;;2.10;;
66972;SDS011;53902;51.466;-2.586;2023-04-07T04:58:39;6.80;;;1.92;;
66972;SDS011;53902;51.466;-2.586;2023-04-07T05:01:06;4.03;;;2.00;;
66972;SDS011;53902;51.466;-2.586;2023-04-07T05:03:31;3.83;;;2.10;;
66972;SDS011;53902;51.466;-2.586;2023-04-07T05:05:57;4.68;;;1.70;;
66972;SDS011;53902;51.466;-2.586;2023-04-07T05:08:22;6.63;;;1.90;;
66972;SDS011;53902;51.466;-2.586;2023-04-07T05:10:48;5.82;;;2.00;;
66972;SDS011;53902;51.466;-2.586;2023-04-07T05:13:13;6.93;;;1.95;;
66972;SDS011;53902;51.466;-2.586;2023-04-07T05:15:40;6.03;;;1.92;;
66972;SDS011;53902;51.466;-2.586;2023-04-07T05:18:06;4.05;;;1.92;;
66972;SDS011;53902;51.466;-2.586;2023-04-07T05:20:31;4.82;;;2.20;;
66972;SDS011;53902;51.466;-2.586;2023-04-07T05:22:56;5.40;;;1.88;;
66972;SDS011;53902;51.466;-2.586;2023-04-07T05:25:22;4.82;;;2.10;;
66972;SDS011;53902;51.466;-2.586;2023-04-07T05:27:47;7.80;;;2.75;;
66972;SDS011;53902;51.466;-2.586;2023-04-07T05:30:13;4.35;;;2.38;;
66972;SDS011;53902;51.466;-2.586;2023-04-07T05:32:39;6.45;;;2.60;;
66972;SDS011;53902;51.466;-2.586;2023-04-07T05:35:04;6.93;;;2.50;;
66972;SDS011;53902;51.466;-2.586;2023-04-07T05:37:30;4.95;;;2.40;;
66972;SDS011;53902;51.466;-2.586;2023-04-07T05:39:56;7.40;;;2.25;;
66972;SDS011;53902;51.466;-2.586;2023-04-07T05:42:21;6.18;;;2.40;;
66972;SDS011;53902;51.466;-2.586;2023-04-07T05:44:47;5.60;;;2.30;;
66972;SDS011;53902;51.466;-2.586;2023-04-07T05:47:12;7.57;;;2.20;;
66972;SDS011;53902;51.466;-2.586;2023-04-07T05:49:38;5.38;;;2.33;;
66972;SDS011;53902;51.466;-2.586;2023-04-07T05:52:10;6.63;;;2.38;;
66972;SDS011;53902;51.466;-2.586;2023-04-07T05:54:36;5.50;;;2.47;;
66972;SDS011;53902;51.466;-2.586;2023-04-07T05:57:01;6.07;;;2.17;;
66972;SDS011;53902;51.466;-2.586;2023-04-07T06:01:54;9.48;;;2.35;;
66972;SDS011;53902;51.466;-2.586;2023-04-07T06:04:20;7.43;;;2.60;;
66972;SDS011;53902;51.466;-2.586;2023-04-07T06:06:45;6.35;;;2.42;;
66972;SDS011;53902;51.466;-2.586;2023-04-07T06:09:11;5.50;;;2.35;;
66972;SDS011;53902;51.466;-2.586;2023-04-07T06:11:36;5.45;;;2.30;;
66972;SDS011;53902;51.466;-2.586;2023-04-07T06:14:02;6.00;;;3.03;;
66972;SDS011;53902;51.466;-2.586;2023-04-07T06:16:30;3.60;;;2.53;;
66972;SDS011;53902;51.466;-2.586;2023-04-07T06:18:56;8.25;;;3.25;;
66972;SDS011;53902;51.466;-2.586;2023-04-07T06:21:24;8.93;;;3.53;;
66972;SDS011;53902;51.466;-2.586;2023-04-07T06:23:50;9.63;;;4.22;;
66972;SDS011;53902;51.466;-2.586;2023-04-07T06:26:18;9.00;;;4.07;;
66972;SDS011;53902;51.466;-2.586;2023-04-07T06:28:45;10.02;;;4.40;;
66972;SDS011;53902;51.466;-2.586;2023-04-07T06:31:11;8.48;;;4.80;;
66972;SDS011;53902;51.466;-2.586;2023-04-07T06:33:36;9.52;;;3.97;;
66972;SDS011;53902;51.466;-2.586;2023-04-07T06:36:02;11.27;;;3.75;;
66972;SDS011;53902;51.466;-2.586;2023-04-07T06:38:28;8.23;;;3.97;;
66972;SDS011;53902;51.466;-2.586;2023-04-07T06:40:57;11.13;;;4.47;;
66972;SDS011;53902;51.466;-2.586;2023-04-07T06:43:22;9.93;;;3.40;;
66972;SDS011;53902;51.466;-2.586;2023-04-07T06:45:50;8.90;;;3.88;;
66972;SDS011;53902;51.466;-2.586;2023-04-07T06:48:18;8.25;;;3.60;;
66972;SDS011;53902;51.466;-2.586;2023-04-07T06:50:46;7.60;;;3.65;;
66972;SDS011;53902;51.466;-2.586;2023-04-07T06:53:13;8.68;;;2.97;;
66972;SDS011;53902;51.466;-2.586;2023-04-07T06:58:44;6.53;;;3.33;;
66972;SDS011;53902;51.466;-2.586;2023-04-07T07:01:10;6.95;;;3.28;;
66972;SDS011;53902;51.466;-2.586;2023-04-07T07:03:36;4.88;;;3.25;;
66972;SDS011;53902;51.466;-2.586;2023-04-07T07:06:01;6.50;;;3.42;;
66972;SDS011;53902;51.466;-2.586;2023-04-07T07:08:27;6.57;;;3.20;;
66972;SDS011;53902;51.466;-2.586;2023-04-07T07:10:53;5.70;;;3.10;;
66972;SDS011;53902;51.466;-2.586;2023-04-07T07:13:20;6.97;;;3.17;;
66972;SDS011;53902;51.466;-2.586;2023-04-07T07:15:47;10.63;;;3.22;;
66972;SDS011;53902;51.466;-2.586;2023-04-07T07:18:13;7.55;;;3.10;;
66972;SDS011;53902;51.466;-2.586;2023-04-07T07:20:38;8.98;;;3.10;;
66972;SDS011;53902;51.466;-2.586;2023-04-07T07:23:04;4.05;;;3.22;;
66972;SDS011;53902;51.466;-2.586;2023-04-07T07:25:30;6.10;;;3.47;;
66972;SDS011;53902;51.466;-2.586;2023-04-07T07:27:55;8.32;;;3.30;;
66972;SDS011;53902;51.466;-2.586;2023-04-07T07:30:21;6.43;;;3.15;;
66972;SDS011;53902;51.466;-2.586;2023-04-07T07:32:49;5.93;;;2.90;;
66972;SDS011;53902;51.466;-2.586;2023-04-07T07:35:17;8.57;;;3.85;;
66972;SDS011;53902;51.466;-2.586;2023-04-07T07:37:44;6.88;;;3.22;;
66972;SDS011;53902;51.466;-2.586;2023-04-07T07:40:10;5.63;;;2.97;;
66972;SDS011;53902;51.466;-2.586;2023-04-07T07:42:36;8.27;;;3.10;;
66972;SDS011;53902;51.466;-2.586;2023-04-07T07:45:02;5.50;;;3.00;;
66972;SDS011;53902;51.466;-2.586;2023-04-07T07:47:28;10.43;;;2.78;;
66972;SDS011;53902;51.466;-2.586;2023-04-07T07:49:54;6.07;;;3.03;;
66972;SDS011;53902;51.466;-2.586;2023-04-07T07:52:20;8.82;;;3.13;;
66972;SDS011;53902;51.466;-2.586;2023-04-07T07:55:19;7.20;;;3.50;;
66972;SDS011;53902;51.466;-2.586;2023-04-07T07:57:43;9.90;;;2.78;;
66972;SDS011;53902;51.466;-2.586;2023-04-07T08:00:17;0.00;;;0.00;;
